Impacts METAR Board
IDs:

KNEW - New Orleans/Lakefron, LA, US

Updated at: 0500 UTC 18 Oct 2018
Potential Impact None Slight Moderate High
Time 17/17Z 17/18Z 17/19Z 17/20Z 17/21Z 17/22Z 17/23Z 18/00Z 18/01Z 18/02Z 18/03Z 18/04Z 18/05Z
Temp74 75 76 76 77 77 77 75 73 72 72 72 72
Dewpt71 71 71 70 71 71 71 70 68 68 67 67 67
Altim30.18 30.17 30.15 30.14 30.14 30.14 30.15 30.17 30.19 30.21 30.22 30.23 30.23
VIS6 8 10 10 10 10 10 10 10 10 10 10 10
CIG5 6 9 10 12 26 25 27 29 10 10 12 11
CoverOVCOVCOVCOVCOVCOVCOVCOVCOVCOVCOVCOVCOVC
FltCatIFRIFRIFRMVFRMVFRMVFRMVFRMVFRMVFRMVFRMVFRMVFRMVFR
WXBR------------------------
WDir40504030304030203030305050
WSpd11 10 12 11 13 14 13 17 18 16 18 17 15
WGst-- -- -- -- -- -- -- -- -- -- -- -- --
Raw hourly METARs
KNEW 171653Z 04011KT 6SM BR OVC005 23/22 A3018 RMK AO2 SLP212 T02330217
KNEW 171753Z 05010KT 8SM OVC006 24/22 A3017 RMK AO2 SLP208 T02390217 10239 20228 58002
KNEW 171853Z 04012KT 10SM OVC009 24/22 A3015 RMK AO2 SLP201 T02440217
KNEW 171953Z 03011KT 10SM OVC010 24/21 A3014 RMK AO2 SLP199 T02440211
KNEW 172053Z 03013KT 10SM OVC012 25/22 A3014 RMK AO2 SLP199 T02500217 56009
KNEW 172153Z 04014KT 10SM SCT020 OVC026 25/22 A3014 RMK AO2 SLP200 T02500217
KNEW 172253Z 03013KT 10SM OVC025 25/22 A3015 RMK AO2 SLP203 T02500217
KNEW 172353Z 02017KT 10SM OVC027 24/21 A3017 RMK AO2 SLP210 T02390211 10250 20239 53010
KNEW 180053Z 03018KT 10SM OVC029 23/20 A3019 RMK AO2 SLP217 T02280200
KNEW 180153Z 03016KT 10SM BKN010 OVC029 22/20 A3021 RMK AO2 SLP223 T02220200
KNEW 180253Z AUTO 03018KT 10SM OVC010 22/19 A3022 RMK AO2 SLP228 T02220194 51018
KNEW 180353Z AUTO 05017KT 10SM OVC012 22/19 A3023 RMK AO2 SLP228 T02220194
KNEW 180453Z AUTO 05015KT 10SM OVC011 22/19 A3023 RMK AO2 SLP228 T02220194



Page loaded:  05:52 UTC  |   10:52 PM Pacific  |   11:52 PM Mountain  |   12:52 AM Central  |   01:52 AM Eastern

 

ADVISORIES

FORECASTS

FORECASTS

OBSERVATIONS

USER TOOLS

ABOUT US